Time;durP1;ratioP1;P1;durP2;ratioP2;P2;SDS_P1;SDS_P2;PMS_P1;PMS_P2;Temp;Humidity;BMP_temperature;BMP_pressure;BME280_temperature;BME280_humidity;BME280_pressure;Samples;Min_cycle;Max_cycle;Signal;HPM_P1;HPM_P2
2022/02/25 00:01:31;;;;;;;11.00;9.45;;;;;;;10.65;66.42;101612.25;5043266;27;103990;-51
2022/02/25 00:04:03;;;;;;;11.18;9.20;;;;;;;10.64;66.25;101609.75;5031408;27;102183;-51
2022/02/25 00:06:35;;;;;;;10.93;9.48;;;;;;;10.64;66.33;101607.88;5039717;27;101965;-51
2022/02/25 00:09:07;;;;;;;13.70;9.27;;;;;;;10.64;66.29;101605.16;5051826;27;102630;-51
2022/02/25 00:11:38;;;;;;;11.38;9.30;;;;;;;10.64;66.79;101605.16;5048643;27;103930;-51
2022/02/25 00:14:09;;;;;;;12.05;10.05;;;;;;;10.64;66.77;101607.88;5045954;27;102293;-51
2022/02/25 00:16:41;;;;;;;11.30;9.18;;;;;;;10.64;66.40;101599.72;5030493;27;102632;-51
2022/02/25 00:19:12;;;;;;;12.60;10.25;;;;;;;10.65;66.86;101604.09;5036460;27;102329;-51
2022/02/25 00:21:46;;;;;;;11.98;10.13;;;;;;;10.65;66.79;101598.63;5049828;27;103989;-51
2022/02/25 00:24:17;;;;;;;10.70;9.38;;;;;;;10.65;66.13;101601.34;5052256;27;102160;-51
2022/02/25 00:26:48;;;;;;;11.70;9.60;;;;;;;10.65;66.81;101601.34;5061293;27;102372;-51
2022/02/25 00:29:18;;;;;;;12.93;9.88;;;;;;;10.65;66.80;101597.81;5052783;27;102405;-51
2022/02/25 00:31:49;;;;;;;12.55;10.55;;;;;;;10.65;66.26;101601.34;5052285;27;103927;-51
2022/02/25 00:34:19;;;;;;;10.40;9.25;;;;;;;10.65;66.34;101598.63;5051499;27;102603;-51
2022/02/25 00:36:49;;;;;;;12.13;10.43;;;;;;;10.66;66.40;101594.84;5051301;27;102492;-51
2022/02/25 00:39:17;;;;;;;10.65;9.55;;;;;;;10.67;66.46;101579.31;5036767;27;102479;-51
2022/02/25 00:41:46;;;;;;;11.47;10.27;;;;;;;10.66;66.77;101583.13;5050775;27;104003;-51
2022/02/25 00:44:14;;;;;;;12.52;9.93;;;;;;;10.66;66.87;101575.78;5028082;27;102309;-51
2022/02/25 00:46:42;;;;;;;11.13;9.70;;;;;;;10.67;66.08;101568.44;5044827;27;102594;-51
2022/02/25 00:49:10;;;;;;;11.50;9.85;;;;;;;10.66;66.55;101567.59;5059570;27;102627;-52
2022/02/25 00:51:38;;;;;;;12.13;9.57;;;;;;;10.66;66.58;101567.59;5051720;27;104188;-51
2022/02/25 00:54:08;;;;;;;12.93;9.52;;;;;;;10.67;66.45;101565.72;5032392;27;102228;-51
2022/02/25 00:56:34;;;;;;;13.45;10.88;;;;;;;10.66;66.49;101562.16;5029784;28;102455;-51
2022/02/25 00:59:02;;;;;;;11.73;9.40;;;;;;;10.67;66.45;101561.06;5059213;27;102204;-51
2022/02/25 01:01:28;;;;;;;11.55;9.70;;;;;;;10.66;66.73;101555.91;5031034;27;103722;-51
2022/02/25 01:03:54;;;;;;;11.13;9.85;;;;;;;10.66;66.50;101551.28;5049984;27;102072;-51
2022/02/25 01:06:21;;;;;;;12.43;10.07;;;;;;;10.67;66.78;101546.66;5050281;27;102344;-51
2022/02/25 01:08:47;;;;;;;11.25;9.75;;;;;;;10.67;66.42;101539.31;5060836;27;102573;-51
2022/02/25 01:11:15;;;;;;;12.38;10.25;;;;;;;10.67;66.63;101536.59;5051051;27;103860;-51
2022/02/25 01:13:42;;;;;;;11.65;10.15;;;;;;;10.67;66.57;101539.31;5050496;27;102419;-51
2022/02/25 01:16:08;;;;;;;13.60;10.45;;;;;;;10.68;66.77;101521.09;5043843;27;102279;-51
2022/02/25 01:18:34;;;;;;;12.10;10.05;;;;;;;10.66;66.31;101524.06;5031002;27;102533;-51
2022/02/25 01:21:00;;;;;;;13.02;10.38;;;;;;;10.67;66.57;101517.53;5029291;28;103879;-51
2022/02/25 01:23:27;;;;;;;9.95;8.85;;;;;;;10.67;66.47;101513.97;5029880;27;102497;-51
2022/02/25 01:25:54;;;;;;;11.45;9.68;;;;;;;10.66;66.83;101502.28;5029403;27;102311;-52
2022/02/25 01:28:21;;;;;;;12.95;10.23;;;;;;;10.67;66.61;101503.91;5031392;27;102994;-51
2022/02/25 01:30:47;;;;;;;11.02;9.50;;;;;;;10.67;66.74;101505.81;5030498;27;103714;-51
2022/02/25 01:33:14;;;;;;;12.77;10.07;;;;;;;10.67;66.52;101506.63;5050610;27;102505;-51
2022/02/25 01:35:40;;;;;;;10.93;9.82;;;;;;;10.68;66.87;101508.31;5047187;27;102274;-51
2022/02/25 01:38:06;;;;;;;11.13;9.52;;;;;;;10.68;66.51;101504.75;5056600;27;102292;-51
2022/02/25 01:40:34;;;;;;;12.80;10.20;;;;;;;10.67;66.54;101501.19;5046521;27;104126;-51
2022/02/25 01:43:00;;;;;;;11.20;10.02;;;;;;;10.67;66.72;101492.22;5035641;27;102130;-51
2022/02/25 01:45:29;;;;;;;12.10;9.80;;;;;;;10.67;66.40;101493.03;5028282;28;102263;-51
2022/02/25 01:47:55;;;;;;;10.77;9.27;;;;;;;10.66;66.40;101485.94;5033538;27;102210;-51
2022/02/25 01:50:21;;;;;;;11.63;9.70;;;;;;;10.67;66.59;101493.03;5043336;27;104136;-51
2022/02/25 01:52:58;;;;;;;10.02;8.98;;;;;;;10.67;66.76;101490.31;5060403;27;102624;-51
2022/02/25 01:55:24;;;;;;;13.07;10.43;;;;;;;10.67;66.89;101482.13;5033540;27;102255;-51
2022/02/25 01:57:50;;;;;;;11.65;9.40;;;;;;;10.67;66.61;101482.13;5054436;27;102550;-51
2022/02/25 02:00:17;;;;;;;11.45;9.43;;;;;;;10.67;66.82;101476.69;5056099;27;103819;-51
2022/02/25 02:02:45;;;;;;;11.57;9.25;;;;;;;10.67;66.51;101471.25;5035828;27;102069;-50
2022/02/25 02:05:11;;;;;;;11.38;9.63;;;;;;;10.67;67.06;101476.69;5044203;27;102185;-51
2022/02/25 02:07:38;;;;;;;13.15;10.25;;;;;;;10.68;66.42;101472.09;5051791;27;102586;-51
2022/02/25 02:10:05;;;;;;;11.98;9.90;;;;;;;10.68;66.48;101466.66;5046813;27;103893;-51
2022/02/25 02:12:31;;;;;;;13.27;10.20;;;;;;;10.68;66.83;101469.38;5049900;27;102460;-51
2022/02/25 02:15:01;;;;;;;12.20;9.60;;;;;;;10.68;66.96;101463.94;5052238;27;102374;-51
2022/02/25 02:17:27;;;;;;;12.20;9.90;;;;;;;10.68;66.55;101463.94;5061695;27;102634;-51
2022/02/25 02:19:56;;;;;;;11.45;9.77;;;;;;;10.68;66.67;101464.75;5048684;27;104077;-51
2022/02/25 02:22:25;;;;;;;11.55;9.43;;;;;;;10.69;66.79;101462.84;5043909;27;102247;-51
2022/02/25 02:24:51;;;;;;;11.55;9.93;;;;;;;10.68;66.49;101455.75;5040462;27;102276;-51
2022/02/25 02:27:18;;;;;;;11.82;9.35;;;;;;;10.66;66.44;101458.72;5065166;27;102408;-52
2022/02/25 02:29:44;;;;;;;12.40;9.73;;;;;;;10.67;66.60;101459.53;5048472;27;103674;-51
2022/02/25 02:32:10;;;;;;;12.93;10.02;;;;;;;10.68;67.09;101461.22;5053521;27;102564;-51
2022/02/25 02:34:37;;;;;;;11.15;9.98;;;;;;;10.66;66.92;101464.16;5048842;27;102021;-51
2022/02/25 02:37:03;;;;;;;11.68;9.63;;;;;;;10.68;66.87;101461.22;5049802;27;102998;-51
2022/02/25 02:39:31;;;;;;;12.55;9.98;;;;;;;10.68;66.88;101470.19;5049981;27;103839;-52
2022/02/25 02:41:57;;;;;;;11.50;9.43;;;;;;;10.67;66.81;101454.91;5033213;27;102410;-53
2022/02/25 02:44:23;;;;;;;12.35;10.48;;;;;;;10.67;66.73;101457.63;5028973;27;102189;-51
2022/02/25 02:46:50;;;;;;;10.82;9.40;;;;;;;10.67;66.49;101454.91;5031365;27;102105;-51
2022/02/25 02:49:16;;;;;;;10.73;9.45;;;;;;;10.68;66.53;101455.75;5037734;27;103673;-51
2022/02/25 02:51:42;;;;;;;11.05;9.32;;;;;;;10.67;67.04;101460.34;5045533;27;102342;-51
2022/02/25 02:54:10;;;;;;;13.35;10.07;;;;;;;10.68;66.54;101462.03;5046701;27;102314;-51
2022/02/25 02:56:37;;;;;;;11.73;9.30;;;;;;;10.67;66.56;101465.81;5034634;27;102455;-51
2022/02/25 02:59:03;;;;;;;10.77;9.13;;;;;;;10.66;66.89;101461.44;5032899;27;103879;-51
2022/02/25 03:01:32;;;;;;;10.93;9.55;;;;;;;10.67;66.73;101465.81;5029489;27;102691;-51
2022/02/25 03:03:59;;;;;;;11.40;9.57;;;;;;;10.66;66.57;101458.72;5041182;27;102438;-51
2022/02/25 03:06:26;;;;;;;10.65;8.95;;;;;;;10.66;66.67;101458.72;5050380;27;102633;-51
2022/02/25 03:08:53;;;;;;;11.25;8.93;;;;;;;10.67;66.57;101454.91;5057940;27;103925;-51
2022/02/25 03:11:19;;;;;;;11.20;8.95;;;;;;;10.67;66.51;101457.63;5041972;27;102578;-53
2022/02/25 03:13:47;;;;;;;11.27;9.82;;;;;;;10.68;66.58;101453.03;5033722;27;102539;-51
2022/02/25 03:16:13;;;;;;;11.93;9.95;;;;;;;10.67;66.70;101457.63;5031742;27;102274;-51
2022/02/25 03:18:39;;;;;;;10.98;9.43;;;;;;;10.68;67.09;101453.84;5043015;27;103979;-51
2022/02/25 03:21:10;;;;;;;11.17;9.10;;;;;;;10.68;66.64;101450.31;5046840;27;102326;-51
2022/02/25 03:23:37;;;;;;;10.23;9.13;;;;;;;10.67;67.11;101449.47;5055856;27;102331;-51
2022/02/25 03:26:03;;;;;;;9.95;8.90;;;;;;;10.67;66.81;101457.63;5051242;27;103165;-51
2022/02/25 03:28:30;;;;;;;10.77;8.88;;;;;;;10.67;67.21;101449.47;5032605;27;104092;-51
2022/02/25 03:30:58;;;;;;;11.30;9.57;;;;;;;10.67;66.74;101449.47;5028105;28;102605;-51
2022/02/25 03:33:24;;;;;;;9.93;8.80;;;;;;;10.67;66.75;101444.03;5034233;27;103104;-51
2022/02/25 03:35:50;;;;;;;10.15;8.82;;;;;;;10.67;67.04;101446.75;5032341;27;102245;-51
2022/02/25 03:38:17;;;;;;;10.70;9.00;;;;;;;10.67;66.90;101438.56;5027388;28;104103;-51
2022/02/25 03:40:43;;;;;;;10.80;9.00;;;;;;;10.67;67.10;101438.56;5044488;27;102060;-51
2022/02/25 03:43:10;;;;;;;11.15;9.32;;;;;;;10.66;66.87;101436.94;5028771;27;102014;-51
2022/02/25 03:45:37;;;;;;;10.85;8.95;;;;;;;10.67;66.72;101435.03;5039153;27;102297;-51
2022/02/25 03:48:05;;;;;;;10.32;8.75;;;;;;;10.68;66.80;101439.44;5023809;27;103909;-51
2022/02/25 03:50:31;;;;;;;10.75;8.93;;;;;;;10.67;67.02;101432.31;5034655;27;103194;-51
2022/02/25 03:52:58;;;;;;;10.40;9.05;;;;;;;10.67;66.69;101441.31;5030353;27;102051;-51
2022/02/25 03:55:24;;;;;;;10.55;9.45;;;;;;;10.67;66.75;101435.84;5053877;27;102335;-51
2022/02/25 03:57:50;;;;;;;10.85;9.07;;;;;;;10.67;66.60;101440.47;5046726;27;103929;-51
2022/02/25 04:00:17;;;;;;;11.07;8.38;;;;;;;10.68;66.95;101447.59;5055897;27;102598;-52
2022/02/25 04:02:43;;;;;;;10.98;9.23;;;;;;;10.66;66.69;101442.38;5067109;27;102578;-51
2022/02/25 04:05:11;;;;;;;9.90;8.82;;;;;;;10.66;66.45;101442.38;5035398;27;102234;-51
2022/02/25 04:07:39;;;;;;;10.68;9.13;;;;;;;10.67;66.77;101445.94;5031936;27;104077;-51
2022/02/25 04:10:08;;;;;;;12.07;9.88;;;;;;;10.67;66.54;101449.47;5058854;27;102463;-51
2022/02/25 04:12:35;;;;;;;10.73;9.20;;;;;;;10.67;67.04;101441.31;5051138;27;102216;-51
2022/02/25 04:15:01;;;;;;;11.15;9.10;;;;;;;10.67;66.82;101440.47;5049753;27;102340;-50
2022/02/25 04:17:28;;;;;;;10.75;9.05;;;;;;;10.67;67.16;101432.31;5030052;27;103865;-51
2022/02/25 04:19:54;;;;;;;10.35;9.32;;;;;;;10.67;67.07;101438.56;5032328;27;102491;-51
2022/02/25 04:22:22;;;;;;;10.75;8.70;;;;;;;10.67;66.92;101437.75;5052697;27;102381;-51
2022/02/25 04:24:48;;;;;;;11.43;9.25;;;;;;;10.67;67.11;101432.31;5060372;27;102220;-51
2022/02/25 04:27:14;;;;;;;9.85;8.55;;;;;;;10.66;66.67;101431.50;5032126;27;104071;-51
2022/02/25 04:29:41;;;;;;;10.50;8.95;;;;;;;10.66;66.74;101428.78;5052621;27;103015;-51
2022/02/25 04:32:08;;;;;;;10.13;8.57;;;;;;;10.66;66.84;101431.50;5063657;27;103628;-51
2022/02/25 04:34:34;;;;;;;10.25;9.00;;;;;;;10.66;67.19;101436.94;5052590;27;102139;-51
2022/02/25 04:37:00;;;;;;;10.68;8.80;;;;;;;10.66;66.85;101431.50;5060355;27;103952;-51
2022/02/25 04:39:28;;;;;;;9.35;8.32;;;;;;;10.66;67.03;101431.50;5052114;27;102033;-50
2022/02/25 04:41:55;;;;;;;11.32;8.95;;;;;;;10.66;66.96;101430.69;5056660;27;102575;-51
2022/02/25 04:44:22;;;;;;;11.07;8.45;;;;;;;10.65;66.72;101432.59;5055682;27;102733;-51
2022/02/25 04:46:49;;;;;;;10.00;8.95;;;;;;;10.65;67.02;101426.31;5055088;27;104063;-51
2022/02/25 04:49:15;;;;;;;11.57;8.65;;;;;;;10.67;66.89;101421.44;5058106;27;102619;-51
2022/02/25 04:51:41;;;;;;;11.70;8.95;;;;;;;10.65;66.76;101424.41;5047990;27;102550;-51
2022/02/25 04:54:08;;;;;;;11.18;8.82;;;;;;;10.65;67.01;101423.59;5046375;27;102433;-53
2022/02/25 04:56:36;;;;;;;10.55;8.90;;;;;;;10.65;67.03;101413.53;5029174;27;103972;-51
2022/02/25 04:59:02;;;;;;;9.40;8.40;;;;;;;10.66;66.74;101426.06;5015220;27;102205;-51
2022/02/25 05:01:28;;;;;;;10.65;8.90;;;;;;;10.66;67.05;101419.78;5033802;27;102358;-51
2022/02/25 05:03:55;;;;;;;10.85;8.25;;;;;;;10.65;66.72;101424.41;5050911;27;102346;-51
2022/02/25 05:06:21;;;;;;;11.65;8.98;;;;;;;10.64;67.05;101414.63;5044828;27;103828;-51
2022/02/25 05:08:47;;;;;;;12.02;8.85;;;;;;;10.65;66.74;101429.88;5029662;27;102557;-51
2022/02/25 05:11:17;;;;;;;11.20;9.40;;;;;;;10.65;67.01;101424.41;5034266;27;103175;-51
2022/02/25 05:13:45;;;;;;;10.32;8.95;;;;;;;10.64;67.06;101422.78;5048374;27;102602;-51
2022/02/25 05:21:52;;;;;;;11.80;9.73;;;;;;;10.64;67.17;101417.34;4979749;27;102615;-51
2022/02/25 05:24:18;;;;;;;9.80;8.80;;;;;;;10.64;67.30;101414.63;5036227;27;102193;-51
2022/02/25 05:26:45;;;;;;;9.25;8.15;;;;;;;10.63;67.19;101412.94;5028221;27;103947;-51
2022/02/25 05:29:12;;;;;;;10.43;8.55;;;;;;;10.64;66.74;101405.59;5034228;27;106123;-51
2022/02/25 05:31:39;;;;;;;10.48;8.63;;;;;;;10.64;66.84;101400.16;5053165;27;102101;-51
2022/02/25 05:34:05;;;;;;;10.45;8.73;;;;;;;10.64;66.55;101401.00;5055364;27;102328;-51
2022/02/25 05:36:31;;;;;;;11.23;9.23;;;;;;;10.65;66.94;101402.63;5047128;27;103962;-51
2022/02/25 05:38:57;;;;;;;10.77;9.23;;;;;;;10.65;66.87;101391.75;5059903;27;102517;-51
2022/02/25 05:41:24;;;;;;;10.43;9.32;;;;;;;10.66;67.08;101400.75;5047082;27;102239;-51
2022/02/25 05:43:51;;;;;;;9.90;8.85;;;;;;;10.65;66.94;101386.31;4996070;27;1343413;-51
2022/02/25 05:46:18;;;;;;;10.90;9.00;;;;;;;10.64;67.25;101381.09;5041012;27;104242;-51
2022/02/25 05:48:44;;;;;;;11.65;9.65;;;;;;;10.66;67.47;101387.13;5064247;27;102240;-51
2022/02/25 05:51:11;;;;;;;13.13;9.57;;;;;;;10.65;67.04;101385.50;5035107;27;102325;-51
2022/02/25 05:53:37;;;;;;;10.55;8.80;;;;;;;10.65;67.16;101402.63;5030564;27;102685;-51
2022/02/25 05:56:04;;;;;;;10.15;8.50;;;;;;;10.64;67.02;101387.41;5028004;27;103093;-51
2022/02/25 05:58:30;;;;;;;11.05;9.27;;;;;;;10.64;66.84;101383.81;5042884;27;102445;-52
2022/02/25 06:00:56;;;;;;;9.63;8.57;;;;;;;10.64;67.29;101387.41;5040060;27;102470;-51
2022/02/25 06:03:24;;;;;;;11.85;9.80;;;;;;;10.63;66.90;101388.44;5048074;27;102759;-51
2022/02/25 06:05:50;;;;;;;11.10;8.98;;;;;;;10.63;66.81;101388.44;5046792;27;104147;-51
2022/02/25 06:08:17;;;;;;;12.50;9.82;;;;;;;10.65;67.16;101380.06;5049440;27;102311;-51
2022/02/25 06:10:43;;;;;;;11.80;9.25;;;;;;;10.63;66.82;101380.28;5049390;27;102792;-51
2022/02/25 06:13:09;;;;;;;12.50;9.63;;;;;;;10.64;66.77;101384.66;5030703;27;102520;-51
2022/02/25 06:15:36;;;;;;;11.48;9.40;;;;;;;10.64;66.77;101389.28;5047862;27;103913;-51
2022/02/25 06:18:02;;;;;;;12.20;10.20;;;;;;;10.64;66.90;101384.66;5058829;27;102140;-51
2022/02/25 06:20:30;;;;;;;11.13;9.70;;;;;;;10.63;66.92;101387.63;5048414;27;102139;-51
2022/02/25 06:22:56;;;;;;;13.48;9.73;;;;;;;10.63;67.20;101393.91;5030194;27;102658;-51
2022/02/25 06:25:23;;;;;;;12.02;9.60;;;;;;;10.63;66.76;101407.50;5028595;27;103890;-51
2022/02/25 06:27:49;;;;;;;10.38;9.10;;;;;;;10.65;67.24;101412.72;5040418;27;102202;-51
2022/02/25 06:30:16;;;;;;;11.32;9.13;;;;;;;10.64;66.92;101405.59;5048203;27;102271;-51
2022/02/25 06:32:43;;;;;;;12.15;9.90;;;;;;;10.63;66.92;101407.50;5057581;27;102712;-52
2022/02/25 06:35:10;;;;;;;11.73;9.77;;;;;;;10.64;66.66;101417.34;5051443;27;103896;-51
2022/02/25 06:37:38;;;;;;;10.90;9.23;;;;;;;10.63;67.36;101414.84;5039608;27;102436;-51
2022/02/25 06:40:06;;;;;;;10.88;9.45;;;;;;;10.63;66.77;101414.84;5043538;27;103383;-51
2022/02/25 06:42:33;;;;;;;10.73;9.07;;;;;;;10.63;66.88;101414.84;5048508;27;102417;-51
2022/02/25 06:44:59;;;;;;;11.50;9.18;;;;;;;10.64;66.81;101417.34;5048384;27;103496;-51
2022/02/25 06:47:25;;;;;;;15.15;10.18;;;;;;;10.63;67.21;101426.56;5049133;27;102601;-51
2022/02/25 06:49:52;;;;;;;11.88;9.98;;;;;;;10.63;66.50;101426.56;5055780;27;102632;-51
2022/02/25 06:52:18;;;;;;;12.20;9.70;;;;;;;10.63;67.09;101418.41;5030008;27;102294;-52
2022/02/25 06:54:46;;;;;;;11.95;9.48;;;;;;;10.64;67.24;101417.34;5028668;27;103912;-51
2022/02/25 06:57:12;;;;;;;14.48;9.48;;;;;;;10.63;67.44;101415.66;5042613;27;102528;-51
2022/02/25 06:59:38;;;;;;;12.35;10.05;;;;;;;10.63;67.31;101421.13;5046823;27;102378;-51
2022/02/25 07:02:05;;;;;;;14.50;9.93;;;;;;;10.63;66.94;101415.66;5049797;27;102558;-51
2022/02/25 07:04:31;;;;;;;11.85;9.38;;;;;;;10.63;66.90;101410.22;5044385;27;103927;-51
2022/02/25 07:06:57;;;;;;;11.73;9.35;;;;;;;10.63;66.88;101404.78;5047652;27;102563;-51
2022/02/25 07:09:24;;;;;;;11.93;9.32;;;;;;;10.62;66.76;101394.97;5027278;28;102616;-51
2022/02/25 07:11:51;;;;;;;13.38;9.90;;;;;;;10.63;66.76;101399.34;5022414;27;102426;-51
2022/02/25 07:14:18;;;;;;;12.93;9.52;;;;;;;10.64;66.86;101401.00;5031939;27;103084;-51
2022/02/25 07:16:44;;;;;;;12.38;9.68;;;;;;;10.64;66.87;101398.28;5035198;27;102413;-51
2022/02/25 07:19:11;;;;;;;10.82;9.02;;;;;;;10.64;66.77;101401.00;5027767;27;102319;-51
2022/02/25 07:21:37;;;;;;;11.73;9.65;;;;;;;10.64;67.41;101392.84;5029480;27;102253;-51
2022/02/25 07:24:04;;;;;;;13.90;10.65;;;;;;;10.63;67.43;101388.44;5028752;27;103886;-51
2022/02/25 07:26:30;;;;;;;12.35;9.98;;;;;;;10.64;66.79;101387.41;5026751;27;102210;-51
2022/02/25 07:28:59;;;;;;;12.57;10.02;;;;;;;10.64;66.77;101384.66;5027363;27;102182;-51
2022/02/25 07:31:25;;;;;;;10.73;9.43;;;;;;;10.64;67.19;101384.66;5029189;28;102349;-51
2022/02/25 07:33:51;;;;;;;12.10;9.65;;;;;;;10.64;66.81;101384.66;5033615;27;103985;-51
2022/02/25 07:36:18;;;;;;;13.43;10.20;;;;;;;10.66;66.76;101389.84;5049967;27;102559;-51
2022/02/25 07:38:44;;;;;;;11.63;9.90;;;;;;;10.65;67.19;101389.03;5057453;27;102268;-51
2022/02/25 07:41:11;;;;;;;12.40;9.77;;;;;;;10.65;67.15;101380.88;5046882;27;103036;-51
2022/02/25 07:43:37;;;;;;;13.68;9.57;;;;;;;10.65;67.06;101380.88;5047638;27;103876;-51
2022/02/25 07:46:05;;;;;;;12.80;10.63;;;;;;;10.65;66.67;101375.41;5048958;27;102260;-51
2022/02/25 07:48:31;;;;;;;13.07;10.32;;;;;;;10.65;67.08;101369.97;5046109;27;102319;-51
2022/02/25 07:50:58;;;;;;;13.00;10.07;;;;;;;10.65;66.91;101358.28;5066966;27;102717;-51
2022/02/25 07:53:24;;;;;;;11.95;9.57;;;;;;;10.65;66.89;101348.19;5049638;27;103944;-51
2022/02/25 07:55:50;;;;;;;12.07;10.32;;;;;;;10.65;67.39;101359.09;5045991;27;102018;-51
2022/02/25 07:58:17;;;;;;;12.80;10.25;;;;;;;10.66;66.77;101355.28;5043670;27;102789;-51
2022/02/25 08:00:43;;;;;;;13.38;10.75;;;;;;;10.67;66.64;101356.91;5031127;27;102213;-51
2022/02/25 08:03:11;;;;;;;12.95;10.40;;;;;;;10.66;66.88;101349.84;5035588;27;104415;-51
2022/02/25 08:05:37;;;;;;;13.13;10.93;;;;;;;10.66;66.54;101349.84;5047915;27;102377;-51
2022/02/25 08:08:05;;;;;;;12.60;10.73;;;;;;;10.67;66.82;101351.47;5046856;27;102494;-51
2022/02/25 08:10:35;;;;;;;12.57;10.95;;;;;;;10.67;66.75;101342.50;5059380;27;102686;-51
2022/02/25 08:13:02;;;;;;;14.23;10.55;;;;;;;10.67;66.55;101351.47;5054521;27;103957;-51
2022/02/25 08:15:28;;;;;;;14.23;11.23;;;;;;;10.67;66.92;101346.03;5048399;27;102420;-51
2022/02/25 08:17:54;;;;;;;13.57;11.25;;;;;;;10.67;66.92;101340.59;5048054;27;102418;-51
2022/02/25 08:20:22;;;;;;;13.68;10.70;;;;;;;10.67;66.79;101343.31;5049703;27;102931;-51
2022/02/25 08:22:49;;;;;;;13.57;10.90;;;;;;;10.68;67.15;101335.97;5046494;27;104121;-51
2022/02/25 08:25:16;;;;;;;13.63;11.18;;;;;;;10.68;67.35;101336.81;5054284;27;105448;-51
2022/02/25 08:27:43;;;;;;;14.82;11.02;;;;;;;10.68;67.13;101338.72;5051252;27;102369;-51
2022/02/25 08:30:14;;;;;;;15.48;11.45;;;;;;;10.67;67.11;101329.69;5043259;27;102655;-51
2022/02/25 08:32:42;;;;;;;15.13;11.85;;;;;;;10.67;66.73;101324.25;5047033;27;103711;-51
2022/02/25 08:35:09;;;;;;;13.90;11.13;;;;;;;10.68;66.85;101325.09;5048208;27;102010;-51
2022/02/25 08:37:37;;;;;;;14.95;10.90;;;;;;;10.69;67.31;101324.81;5053963;27;102151;-51
2022/02/25 08:40:06;;;;;;;14.77;11.77;;;;;;;10.69;67.33;101326.72;5054358;27;102369;-51
2022/02/25 08:42:35;;;;;;;14.07;11.20;;;;;;;10.69;66.45;101329.44;5060371;27;103937;-51
2022/02/25 08:45:02;;;;;;;14.65;11.23;;;;;;;10.69;66.78;101333.00;5039217;27;102263;-51
2022/02/25 08:47:29;;;;;;;13.75;11.20;;;;;;;10.69;66.91;101324.81;5051135;27;102091;-51
2022/02/25 08:49:55;;;;;;;14.75;11.43;;;;;;;10.69;66.60;101322.09;5052577;27;102789;-51
2022/02/25 08:52:22;;;;;;;13.75;11.10;;;;;;;10.69;66.92;101316.66;5024824;27;103914;-51
2022/02/25 08:54:50;;;;;;;13.70;11.00;;;;;;;10.69;66.66;101316.66;5047332;27;102171;-51
2022/02/25 08:57:16;;;;;;;15.77;11.35;;;;;;;10.69;66.90;101327.56;5051668;27;102423;-51
2022/02/25 08:59:43;;;;;;;12.07;10.23;;;;;;;10.67;66.97;101316.09;5060707;27;102812;-51
2022/02/25 09:02:10;;;;;;;12.25;10.68;;;;;;;10.68;66.54;101320.47;5050043;27;104039;-51
2022/02/25 09:04:37;;;;;;;12.63;10.40;;;;;;;10.68;66.78;101309.59;5051106;27;102411;-51
2022/02/25 09:07:03;;;;;;;16.67;11.32;;;;;;;10.68;66.87;101301.41;5050223;27;102437;-51
2022/02/25 09:09:30;;;;;;;14.02;11.02;;;;;;;10.68;66.66;101304.13;5053423;27;102480;-51
2022/02/25 09:11:58;;;;;;;19.95;11.48;;;;;;;10.68;66.46;101290.53;5032236;27;103771;-51
2022/02/25 09:14:24;;;;;;;36.72;11.20;;;;;;;10.70;66.53;101284.81;5030646;27;102164;-51
2022/02/25 09:16:51;;;;;;;72.32;12.80;;;;;;;10.71;66.27;101281.00;5030116;27;102323;-51
2022/02/25 09:19:17;;;;;;;29.45;11.07;;;;;;;10.69;66.56;101278.53;5050764;27;102585;-51
2022/02/25 09:21:43;;;;;;;22.95;11.57;;;;;;;10.69;66.83;101273.09;5030967;27;103870;-51
2022/02/25 09:24:09;;;;;;;14.40;10.35;;;;;;;10.70;66.47;101276.66;5037548;27;103333;-52
2022/02/25 09:26:36;;;;;;;14.43;10.63;;;;;;;10.69;66.36;101273.09;5043914;27;102241;-53
2022/02/25 09:29:08;;;;;;;12.30;10.18;;;;;;;10.70;66.83;101266.56;5046866;27;102634;-51
2022/02/25 09:31:34;;;;;;;11.98;10.32;;;;;;;10.69;66.78;101267.66;5034407;27;108086;-52
2022/02/25 09:34:00;;;;;;;13.70;10.45;;;;;;;10.70;66.48;101252.16;5035867;27;102321;-51
2022/02/25 09:36:27;;;;;;;12.15;10.23;;;;;;;10.70;66.14;101252.97;5035463;27;102716;-52
2022/02/25 09:38:54;;;;;;;12.75;10.52;;;;;;;10.70;66.37;101247.50;5036138;27;102584;-52
2022/02/25 09:41:20;;;;;;;12.43;10.13;;;;;;;10.70;66.44;101243.97;5027387;27;104055;-51
2022/02/25 09:43:46;;;;;;;11.35;9.52;;;;;;;10.71;66.42;101240.16;5029720;27;102385;-51
2022/02/25 09:46:18;;;;;;;13.85;11.05;;;;;;;10.70;66.61;101231.19;5048229;27;104319;-51
2022/02/25 09:48:44;;;;;;;13.80;10.57;;;;;;;10.70;65.94;101224.91;5055275;27;102762;-51
2022/02/25 09:51:11;;;;;;;11.02;9.32;;;;;;;10.70;66.66;101225.75;5052104;27;104186;-51
2022/02/25 09:53:38;;;;;;;14.85;10.18;;;;;;;10.70;65.94;101214.84;5049740;27;102176;-51
2022/02/25 09:56:05;;;;;;;12.38;9.65;;;;;;;10.70;66.37;101209.41;5042639;27;102186;-51
2022/02/25 09:58:31;;;;;;;12.43;10.10;;;;;;;10.70;66.71;101209.41;5046155;27;103547;-51
2022/02/25 10:00:58;;;;;;;13.27;9.98;;;;;;;10.70;66.23;101212.13;5049283;27;104097;-51
2022/02/25 10:03:30;;;;;;;11.00;9.65;;;;;;;10.69;65.98;101218.66;5054220;27;102296;-51
2022/02/25 10:06:03;;;;;;;13.35;10.43;;;;;;;10.70;66.44;101208.59;5029117;27;102363;-51
2022/02/25 10:08:29;;;;;;;11.20;9.30;;;;;;;10.69;66.11;101202.31;5030155;27;103341;-51
2022/02/25 10:10:57;;;;;;;13.15;9.45;;;;;;;10.69;66.21;101202.31;5042849;27;103918;-51
2022/02/25 10:13:24;;;;;;;10.73;9.27;;;;;;;10.70;66.46;101198.53;5029447;27;101789;-51
2022/02/25 10:15:53;;;;;;;11.57;9.77;;;;;;;10.69;66.08;101188.72;5042292;27;102047;-52
2022/02/25 10:18:23;;;;;;;12.48;9.15;;;;;;;10.68;66.01;101187.09;5044199;27;102545;-51
2022/02/25 10:21:00;;;;;;;11.23;9.00;;;;;;;10.70;66.76;101184.09;5036384;27;103903;-52
2022/02/25 10:23:29;;;;;;;10.88;9.20;;;;;;;10.70;65.93;101181.38;5055341;27;102115;-51
2022/02/25 10:26:06;;;;;;;13.40;9.60;;;;;;;10.70;66.21;101179.47;5038935;27;102381;-51
2022/02/25 10:28:34;;;;;;;12.00;9.48;;;;;;;10.69;65.93;101177.81;5040888;27;102348;-52
2022/02/25 10:31:23;;;;;;;10.90;9.40;;;;;;;10.68;66.04;101173.47;5048446;27;103724;-51
2022/02/25 10:34:05;;;;;;;12.60;9.57;;;;;;;10.68;66.35;101168.03;5058609;27;102750;-51
2022/02/25 10:36:45;;;;;;;9.85;8.85;;;;;;;10.69;66.18;101168.84;5045516;27;102605;-51
2022/02/25 10:39:13;;;;;;;9.85;8.75;;;;;;;10.69;66.05;101166.94;5045604;27;102467;-51
2022/02/25 10:41:40;;;;;;;10.85;9.40;;;;;;;10.69;65.90;101168.84;5063503;27;108047;-51
2022/02/25 10:44:07;;;;;;;9.50;8.48;;;;;;;10.69;65.82;101175.09;5038753;27;102244;-52
2022/02/25 10:46:33;;;;;;;10.98;8.73;;;;;;;10.70;66.03;101162.31;5040085;27;102688;-51
2022/02/25 10:49:07;;;;;;;12.48;8.30;;;;;;;10.69;66.35;101147.88;5042047;27;102414;-51
2022/02/25 10:51:35;;;;;;;11.35;8.65;;;;;;;10.69;65.69;101152.50;5027755;27;104013;-51
2022/02/25 10:54:04;;;;;;;10.27;8.80;;;;;;;10.68;65.79;101140.81;5034460;27;102444;-51
2022/02/25 10:56:42;;;;;;;11.23;8.60;;;;;;;10.69;65.81;101147.06;5027555;27;102606;-51
2022/02/25 10:59:11;;;;;;;11.60;8.63;;;;;;;10.69;65.80;101131.56;5029650;27;102686;-51
2022/02/25 11:01:39;;;;;;;10.32;8.32;;;;;;;10.69;65.74;101133.47;5028002;27;104077;-51
2022/02/25 11:04:07;;;;;;;10.80;8.30;;;;;;;10.68;66.02;101126.38;5028730;27;102248;-51
2022/02/25 11:06:34;;;;;;;10.05;8.27;;;;;;;10.68;65.64;101121.75;5027955;27;102472;-51
2022/02/25 11:09:04;;;;;;;12.02;8.57;;;;;;;10.68;65.87;101119.03;5035859;27;102280;-51
2022/02/25 11:11:31;;;;;;;;;;;;;;;10.68;65.75;101116.31;5029337;27;104055;-51
2022/02/25 11:14:03;;;;;;;12.65;7.85;;;;;;;10.69;65.51;101114.41;5050073;27;102151;-50